Jackson, Louisiana
Current Conditions -  °F | °C
As of 1:55 AM on Monday 24 Nov 2014 (Local Time) from KHZR Reporting Station
Haze Haze  
Wind Chill: 65°   Ceiling: Unl
Heat Index: 65°   Visibility: 5mi
Dew Point: 64°   Wind: 5mph
Humidity: 97%   Direction: 220°SW
Pressure: 29.72"   Gusts: NA
Location:  30.84°N, 91.22°W
Report Text: KHZR 240755Z AUTO 22004KT 5SM BR CLR 19/18 A2972 RMK AO2 T01850180
Loading
Personal Weather Stations






























Interactive Weather Map New forecast layout! Learn more

10-Day Weather Forecast

Advertisements
Track Severe Weather on mobile